createdAt,value
2023-04-18T05:52:41.801Z,9.36
2023-04-18T05:55:09.239Z,9.40
2023-04-18T05:57:36.175Z,9.48
2023-04-18T06:00:08.038Z,9.56
2023-04-18T06:02:39.494Z,9.65
2023-04-18T06:05:08.059Z,9.75
2023-04-18T06:07:35.512Z,9.82
2023-04-18T06:10:02.647Z,9.88
2023-04-18T06:12:30.902Z,9.91
2023-04-18T06:14:57.805Z,9.92
2023-04-18T06:17:24.792Z,10.02
2023-04-18T06:19:51.786Z,10.08
2023-04-18T06:22:18.707Z,10.11
2023-04-18T06:24:46.522Z,10.13
2023-04-18T06:27:27.884Z,10.16
2023-04-18T06:29:57.356Z,10.18
2023-04-18T06:32:24.345Z,10.20
2023-04-18T06:34:53.741Z,10.20
2023-04-18T06:37:21.063Z,10.22
2023-04-18T06:39:48.057Z,10.26
2023-04-18T06:42:15.093Z,10.28
2023-04-18T06:44:45.099Z,10.33
2023-04-18T06:47:12.325Z,10.37
2023-04-18T06:49:39.194Z,10.41
2023-04-18T06:52:06.341Z,10.46
2023-04-18T06:54:33.364Z,10.54
2023-04-18T06:57:00.399Z,10.61
2023-04-18T06:59:27.389Z,10.67
2023-04-18T07:01:54.576Z,10.75
2023-04-18T07:04:21.664Z,10.83
2023-04-18T07:06:48.717Z,10.81
2023-04-18T07:09:15.684Z,10.88
2023-04-18T07:11:42.634Z,10.91
2023-04-18T07:14:12.145Z,10.96
2023-04-18T07:16:39.373Z,11.04
2023-04-18T07:19:06.849Z,11.08
2023-04-18T07:21:33.823Z,11.17
2023-04-18T07:24:00.888Z,11.24
2023-04-18T07:26:27.923Z,11.30
2023-04-18T07:28:54.837Z,11.33
2023-04-18T07:31:21.810Z,11.39
2023-04-18T07:33:48.739Z,11.52
2023-04-18T07:36:15.925Z,11.60
2023-04-18T07:38:42.940Z,11.64
2023-04-18T07:41:09.868Z,11.70
2023-04-18T07:43:36.848Z,11.76
2023-04-18T07:46:03.862Z,11.82
2023-04-18T07:48:31.018Z,11.90
2023-04-18T07:50:58.032Z,11.95
2023-04-18T07:53:24.989Z,12.05
2023-04-18T07:55:52.020Z,12.09
2023-04-18T07:58:18.974Z,12.09
2023-04-18T08:00:45.927Z,12.18
2023-04-18T08:03:13.763Z,12.19
2023-04-18T08:05:42.430Z,12.16
2023-04-18T08:08:11.894Z,12.17
2023-04-18T08:10:39.175Z,12.18
2023-04-18T08:13:06.964Z,12.14
2023-04-18T08:15:34.094Z,12.19
2023-04-18T08:18:01.428Z,12.24
2023-04-18T08:20:28.466Z,12.28
2023-04-18T08:25:25.750Z,12.46
2023-04-18T08:27:52.668Z,12.43
2023-04-18T08:30:19.738Z,12.53
2023-04-18T08:32:46.871Z,12.56
2023-04-18T08:35:13.872Z,12.61
2023-04-18T08:37:41.011Z,12.73
2023-04-18T08:40:08.399Z,12.78
2023-04-18T08:42:38.856Z,12.87
2023-04-18T08:45:10.294Z,12.98
2023-04-18T08:47:37.664Z,13.09
2023-04-18T08:50:05.063Z,13.16
2023-04-18T08:52:32.761Z,13.31
2023-04-18T08:54:59.716Z,13.51
2023-04-18T08:57:31.303Z,13.76
2023-04-18T09:00:00.908Z,14.01
2023-04-18T09:02:43.133Z,14.30
2023-04-18T09:05:21.486Z,14.45
2023-04-18T09:07:50.114Z,14.48
2023-04-18T09:10:34.430Z,14.46
2023-04-18T09:13:05.893Z,14.52
2023-04-18T09:15:32.959Z,14.61
2023-04-18T09:18:03.234Z,14.69
2023-04-18T09:20:42.365Z,14.75
2023-04-18T09:23:16.441Z,14.77
2023-04-18T09:25:47.069Z,14.63
2023-04-18T09:28:33.805Z,14.59
2023-04-18T09:31:13.628Z,14.44
2023-04-18T09:33:44.979Z,14.17
2023-04-18T09:36:27.612Z,13.96
2023-04-18T09:38:56.989Z,13.82
2023-04-18T09:41:24.730Z,13.58
2023-04-18T09:44:14.938Z,13.37
2023-04-18T09:46:44.579Z,13.26
2023-04-18T09:49:14.223Z,13.17
2023-04-18T09:51:44.568Z,13.12
2023-04-18T09:54:17.504Z,13.10
2023-04-18T09:56:46.697Z,13.10
2023-04-18T09:59:18.138Z,13.11
2023-04-18T10:01:48.704Z,13.16
2023-04-18T10:04:17.889Z,13.19
2023-04-18T10:06:46.094Z,13.28
2023-04-18T10:09:16.292Z,13.34
2023-04-18T10:11:44.072Z,13.45
2023-04-18T10:14:14.455Z,13.44
2023-04-18T10:16:45.711Z,13.44
2023-04-18T10:19:26.340Z,13.43
2023-04-18T10:21:58.130Z,13.39
2023-04-18T10:24:53.297Z,13.47
2023-04-18T10:27:49.359Z,13.49
2023-04-18T10:30:17.271Z,13.43
2023-04-18T10:32:46.857Z,13.47
2023-04-18T10:35:13.952Z,13.49
2023-04-18T10:37:51.318Z,13.34
2023-04-18T10:40:33.561Z,13.24
2023-04-18T10:43:01.137Z,13.25
2023-04-18T10:45:31.159Z,13.32
2023-04-18T10:48:24.411Z,13.39
2023-04-18T10:51:17.230Z,13.52
2023-04-18T10:53:53.114Z,13.59
2023-04-18T10:56:20.260Z,13.71
2023-04-18T10:58:52.478Z,13.97
2023-04-18T11:01:32.707Z,14.22
2023-04-18T11:04:11.483Z,14.43
2023-04-18T11:06:49.601Z,14.72
2023-04-18T11:09:16.560Z,14.83
2023-04-18T11:11:44.492Z,15.02
2023-04-18T11:14:11.773Z,15.21
2023-04-18T11:16:40.671Z,15.23
2023-04-18T11:19:26.002Z,15.29
2023-04-18T11:21:53.045Z,15.03
2023-04-18T11:24:24.500Z,15.05
2023-04-18T11:26:56.186Z,15.26
2023-04-18T11:29:23.445Z,15.51
2023-04-18T11:31:56.819Z,15.71
2023-04-18T11:34:30.805Z,15.73
2023-04-18T11:36:58.250Z,15.65
2023-04-18T11:39:25.584Z,15.57
2023-04-18T11:41:52.855Z,15.67
2023-04-18T11:44:27.079Z,15.46
2023-04-18T11:46:54.410Z,15.12
2023-04-18T11:49:32.436Z,14.96
2023-04-18T11:52:01.310Z,14.96
2023-04-18T11:54:45.110Z,15.09
2023-04-18T11:57:26.575Z,14.93
2023-04-18T11:59:57.100Z,14.67
2023-04-18T12:02:27.581Z,14.52
2023-04-18T12:05:00.425Z,14.41
2023-04-18T12:07:36.624Z,14.25
2023-04-18T12:10:05.896Z,13.88
2023-04-18T12:12:32.843Z,13.71
2023-04-18T12:15:06.933Z,13.58
2023-04-18T12:17:34.240Z,13.30
2023-04-18T12:20:02.376Z,13.09
2023-04-18T12:22:38.760Z,12.79
2023-04-18T12:25:31.098Z,12.53
2023-04-18T12:28:01.141Z,12.36
2023-04-18T12:30:37.670Z,12.19
2023-04-18T12:33:05.326Z,12.11
2023-04-18T12:35:32.965Z,12.08
2023-04-18T12:38:01.957Z,12.21
2023-04-18T12:40:30.217Z,12.32
2023-04-18T12:42:57.550Z,12.29
2023-04-18T12:45:24.735Z,12.38
2023-04-18T12:47:53.377Z,12.38
2023-04-18T12:50:23.842Z,12.47
2023-04-18T12:52:55.897Z,12.57
2023-04-18T12:55:23.178Z,12.55
2023-04-18T12:57:54.592Z,12.44
2023-04-18T13:00:23.752Z,12.34
2023-04-18T13:02:51.349Z,12.06
2023-04-18T13:05:20.523Z,11.93
2023-04-18T13:07:49.504Z,11.95
2023-04-18T13:10:22.034Z,12.02
2023-04-18T13:12:50.498Z,12.06
2023-04-18T13:15:17.869Z,12.05
2023-04-18T13:17:44.953Z,11.87
2023-04-18T13:20:15.287Z,11.80
2023-04-18T13:22:43.370Z,11.79
2023-04-18T13:25:11.444Z,11.80
2023-04-18T13:27:41.718Z,11.80
2023-04-18T13:30:11.837Z,11.87
2023-04-18T13:32:41.475Z,11.89
2023-04-18T13:35:13.666Z,11.84
2023-04-18T13:37:40.735Z,11.88
2023-04-18T13:40:08.265Z,11.80
2023-04-18T13:42:37.393Z,11.68
2023-04-18T13:45:04.586Z,11.57
2023-04-18T13:47:31.737Z,11.51
2023-04-18T13:49:58.929Z,11.47
2023-04-18T13:52:26.364Z,11.48
2023-04-18T13:54:53.317Z,11.45
2023-04-18T13:57:20.466Z,11.51
2023-04-18T13:59:47.496Z,11.55
2023-04-18T14:02:14.652Z,11.61
2023-04-18T14:04:41.821Z,11.65
2023-04-18T14:07:09.375Z,11.58
2023-04-18T14:09:36.457Z,11.50
2023-04-18T14:12:03.452Z,11.48
2023-04-18T14:14:30.657Z,11.40
2023-04-18T14:16:57.648Z,11.41
2023-04-18T14:19:25.246Z,11.34
2023-04-18T14:21:52.187Z,11.23
2023-04-18T14:24:19.243Z,11.32
2023-04-18T14:26:46.224Z,11.50
2023-04-18T14:29:14.627Z,11.60
2023-04-18T14:31:41.947Z,11.69
2023-04-18T14:34:09.954Z,11.60
2023-04-18T14:36:37.426Z,11.52
2023-04-18T14:39:05.043Z,11.62
2023-04-18T14:41:32.203Z,11.61
2023-04-18T14:43:59.560Z,11.60
2023-04-18T14:46:28.447Z,11.60
2023-04-18T14:48:55.555Z,11.43
2023-04-18T14:51:23.766Z,11.44
2023-04-18T14:53:50.835Z,11.35
2023-04-18T14:56:21.265Z,11.26
2023-04-18T14:58:48.704Z,11.16
2023-04-18T15:01:17.711Z,11.14
2023-04-18T15:03:45.587Z,11.07
2023-04-18T15:06:12.740Z,11.01
2023-04-18T15:08:39.705Z,10.99
2023-04-18T15:11:08.369Z,10.99
2023-04-18T15:13:35.505Z,11.03
2023-04-18T15:16:03.049Z,10.95
2023-04-18T15:18:30.130Z,10.76
2023-04-18T15:20:59.694Z,10.63
2023-04-18T15:23:26.788Z,10.59
2023-04-18T15:25:53.825Z,10.53
2023-04-18T15:28:20.876Z,10.51
2023-04-18T15:30:47.906Z,10.48
2023-04-18T15:33:15.935Z,10.55
2023-04-18T15:35:42.922Z,10.47
2023-04-18T15:38:09.849Z,10.56
2023-04-18T15:40:36.955Z,10.46
2023-04-18T15:43:04.406Z,10.47
2023-04-18T15:45:31.581Z,10.46
2023-04-18T15:59:00.424Z,10.16
